sensor_id;sensor_type;location;lat;lon;timestamp;P1;durP1;ratioP1;P2;durP2;ratioP2
13753;SDS011;6948;51.216;6.778;2022-10-17T00:01:12;9.20;;;5.23;;
13753;SDS011;6948;51.216;6.778;2022-10-17T00:03:38;6.27;;;5.27;;
13753;SDS011;6948;51.216;6.778;2022-10-17T00:06:06;9.00;;;5.70;;
13753;SDS011;6948;51.216;6.778;2022-10-17T00:08:32;8.83;;;5.47;;
13753;SDS011;6948;51.216;6.778;2022-10-17T00:10:59;6.30;;;5.63;;
13753;SDS011;6948;51.216;6.778;2022-10-17T00:13:26;10.20;;;6.27;;
13753;SDS011;6948;51.216;6.778;2022-10-17T00:15:52;5.73;;;5.13;;
13753;SDS011;6948;51.216;6.778;2022-10-17T00:18:21;9.80;;;5.90;;
13753;SDS011;6948;51.216;6.778;2022-10-17T00:20:47;7.97;;;5.80;;
13753;SDS011;6948;51.216;6.778;2022-10-17T00:23:13;9.90;;;5.40;;
13753;SDS011;6948;51.216;6.778;2022-10-17T00:25:39;6.20;;;5.60;;
13753;SDS011;6948;51.216;6.778;2022-10-17T00:28:07;6.67;;;5.53;;
13753;SDS011;6948;51.216;6.778;2022-10-17T00:30:33;9.77;;;5.90;;
13753;SDS011;6948;51.216;6.778;2022-10-17T00:33:00;7.00;;;5.50;;
13753;SDS011;6948;51.216;6.778;2022-10-17T00:35:26;7.03;;;5.73;;
13753;SDS011;6948;51.216;6.778;2022-10-17T00:37:52;6.70;;;5.43;;
13753;SDS011;6948;51.216;6.778;2022-10-17T00:40:18;6.97;;;5.80;;
13753;SDS011;6948;51.216;6.778;2022-10-17T00:42:46;6.20;;;5.13;;
13753;SDS011;6948;51.216;6.778;2022-10-17T00:45:23;7.87;;;5.90;;
13753;SDS011;6948;51.216;6.778;2022-10-17T00:47:54;6.07;;;5.47;;
13753;SDS011;6948;51.216;6.778;2022-10-17T00:50:23;5.87;;;5.03;;
13753;SDS011;6948;51.216;6.778;2022-10-17T00:52:57;6.97;;;5.50;;
13753;SDS011;6948;51.216;6.778;2022-10-17T00:55:26;6.97;;;5.33;;
13753;SDS011;6948;51.216;6.778;2022-10-17T00:57:54;9.30;;;5.70;;
13753;SDS011;6948;51.216;6.778;2022-10-17T01:00:21;8.60;;;5.67;;
13753;SDS011;6948;51.216;6.778;2022-10-17T01:02:47;8.90;;;5.40;;
13753;SDS011;6948;51.216;6.778;2022-10-17T01:05:14;6.73;;;5.37;;
13753;SDS011;6948;51.216;6.778;2022-10-17T01:07:40;6.10;;;5.30;;
13753;SDS011;6948;51.216;6.778;2022-10-17T01:10:07;7.37;;;5.30;;
13753;SDS011;6948;51.216;6.778;2022-10-17T01:15:22;6.83;;;5.37;;
13753;SDS011;6948;51.216;6.778;2022-10-17T01:23:14;5.60;;;4.90;;
13753;SDS011;6948;51.216;6.778;2022-10-17T01:25:49;6.87;;;5.20;;
13753;SDS011;6948;51.216;6.778;2022-10-17T01:28:21;7.60;;;5.40;;
13753;SDS011;6948;51.216;6.778;2022-10-17T01:36:30;7.27;;;5.13;;
13753;SDS011;6948;51.216;6.778;2022-10-17T01:39:01;7.87;;;5.00;;
13753;SDS011;6948;51.216;6.778;2022-10-17T01:41:36;7.63;;;5.30;;
13753;SDS011;6948;51.216;6.778;2022-10-17T01:44:06;5.53;;;5.00;;
13753;SDS011;6948;51.216;6.778;2022-10-17T01:46:35;6.33;;;5.07;;
13753;SDS011;6948;51.216;6.778;2022-10-17T01:49:02;9.97;;;5.03;;
13753;SDS011;6948;51.216;6.778;2022-10-17T01:51:30;8.27;;;5.23;;
13753;SDS011;6948;51.216;6.778;2022-10-17T01:54:00;8.73;;;5.00;;
13753;SDS011;6948;51.216;6.778;2022-10-17T01:56:27;7.73;;;5.40;;
13753;SDS011;6948;51.216;6.778;2022-10-17T01:58:56;7.93;;;5.10;;
13753;SDS011;6948;51.216;6.778;2022-10-17T02:01:25;7.33;;;5.10;;
13753;SDS011;6948;51.216;6.778;2022-10-17T02:03:53;7.60;;;5.10;;
13753;SDS011;6948;51.216;6.778;2022-10-17T02:06:20;7.20;;;5.30;;
13753;SDS011;6948;51.216;6.778;2022-10-17T02:08:47;6.13;;;5.27;;
13753;SDS011;6948;51.216;6.778;2022-10-17T02:11:14;6.27;;;4.90;;
13753;SDS011;6948;51.216;6.778;2022-10-17T02:19:06;7.37;;;5.00;;
13753;SDS011;6948;51.216;6.778;2022-10-17T02:24:17;9.20;;;4.77;;
13753;SDS011;6948;51.216;6.778;2022-10-17T02:26:49;9.57;;;5.40;;
13753;SDS011;6948;51.216;6.778;2022-10-17T02:29:21;8.27;;;5.37;;
13753;SDS011;6948;51.216;6.778;2022-10-17T02:32:02;5.97;;;5.07;;
13753;SDS011;6948;51.216;6.778;2022-10-17T02:34:31;7.47;;;5.03;;
13753;SDS011;6948;51.216;6.778;2022-10-17T02:37:01;7.13;;;4.60;;
13753;SDS011;6948;51.216;6.778;2022-10-17T02:39:30;5.80;;;5.03;;
13753;SDS011;6948;51.216;6.778;2022-10-17T02:41:56;6.60;;;4.63;;
13753;SDS011;6948;51.216;6.778;2022-10-17T02:44:23;11.67;;;5.20;;
13753;SDS011;6948;51.216;6.778;2022-10-17T02:46:52;8.30;;;5.30;;
13753;SDS011;6948;51.216;6.778;2022-10-17T02:49:22;5.83;;;4.57;;
13753;SDS011;6948;51.216;6.778;2022-10-17T02:51:51;8.83;;;5.00;;
13753;SDS011;6948;51.216;6.778;2022-10-17T02:54:21;6.90;;;4.53;;
13753;SDS011;6948;51.216;6.778;2022-10-17T02:56:50;6.47;;;4.97;;
13753;SDS011;6948;51.216;6.778;2022-10-17T02:59:19;7.63;;;5.40;;
13753;SDS011;6948;51.216;6.778;2022-10-17T03:01:49;6.93;;;5.20;;
13753;SDS011;6948;51.216;6.778;2022-10-17T03:04:16;8.17;;;5.30;;
13753;SDS011;6948;51.216;6.778;2022-10-17T03:06:42;7.77;;;4.70;;
13753;SDS011;6948;51.216;6.778;2022-10-17T03:09:08;6.57;;;4.80;;
13753;SDS011;6948;51.216;6.778;2022-10-17T03:11:35;7.03;;;4.90;;
13753;SDS011;6948;51.216;6.778;2022-10-17T03:14:01;6.73;;;5.00;;
13753;SDS011;6948;51.216;6.778;2022-10-17T03:16:27;6.70;;;4.50;;
13753;SDS011;6948;51.216;6.778;2022-10-17T03:18:53;8.47;;;4.40;;
13753;SDS011;6948;51.216;6.778;2022-10-17T03:21:19;11.17;;;4.63;;
13753;SDS011;6948;51.216;6.778;2022-10-17T03:23:47;7.10;;;5.33;;
13753;SDS011;6948;51.216;6.778;2022-10-17T03:26:14;6.87;;;4.80;;
13753;SDS011;6948;51.216;6.778;2022-10-17T03:28:40;5.53;;;4.90;;
13753;SDS011;6948;51.216;6.778;2022-10-17T03:31:07;5.30;;;4.57;;
13753;SDS011;6948;51.216;6.778;2022-10-17T03:33:34;7.20;;;4.93;;
13753;SDS011;6948;51.216;6.778;2022-10-17T03:36:03;4.93;;;4.40;;
13753;SDS011;6948;51.216;6.778;2022-10-17T03:38:29;5.50;;;4.90;;
13753;SDS011;6948;51.216;6.778;2022-10-17T03:40:55;9.90;;;5.00;;
13753;SDS011;6948;51.216;6.778;2022-10-17T03:43:22;8.33;;;4.77;;
13753;SDS011;6948;51.216;6.778;2022-10-17T03:45:48;11.50;;;4.90;;
13753;SDS011;6948;51.216;6.778;2022-10-17T03:48:14;6.73;;;4.50;;
13753;SDS011;6948;51.216;6.778;2022-10-17T03:50:40;6.00;;;4.73;;
13753;SDS011;6948;51.216;6.778;2022-10-17T03:53:06;6.43;;;4.90;;
13753;SDS011;6948;51.216;6.778;2022-10-17T03:55:32;7.17;;;4.40;;
13753;SDS011;6948;51.216;6.778;2022-10-17T03:57:58;5.07;;;4.50;;
13753;SDS011;6948;51.216;6.778;2022-10-17T04:00:24;6.90;;;4.83;;
13753;SDS011;6948;51.216;6.778;2022-10-17T04:02:50;5.60;;;5.00;;
13753;SDS011;6948;51.216;6.778;2022-10-17T04:05:16;8.53;;;4.60;;
13753;SDS011;6948;51.216;6.778;2022-10-17T04:07:42;8.50;;;5.07;;
13753;SDS011;6948;51.216;6.778;2022-10-17T04:10:08;8.30;;;4.40;;
13753;SDS011;6948;51.216;6.778;2022-10-17T04:12:35;7.70;;;5.10;;
13753;SDS011;6948;51.216;6.778;2022-10-17T04:15:01;6.63;;;4.60;;
13753;SDS011;6948;51.216;6.778;2022-10-17T04:17:29;7.27;;;4.77;;
13753;SDS011;6948;51.216;6.778;2022-10-17T04:19:58;8.57;;;5.00;;
13753;SDS011;6948;51.216;6.778;2022-10-17T04:22:26;7.43;;;4.87;;
13753;SDS011;6948;51.216;6.778;2022-10-17T04:24:52;7.10;;;4.40;;
13753;SDS011;6948;51.216;6.778;2022-10-17T04:27:19;6.23;;;4.50;;
13753;SDS011;6948;51.216;6.778;2022-10-17T04:29:45;9.97;;;4.70;;
13753;SDS011;6948;51.216;6.778;2022-10-17T04:32:11;7.07;;;4.50;;
13753;SDS011;6948;51.216;6.778;2022-10-17T04:34:37;6.17;;;4.60;;
13753;SDS011;6948;51.216;6.778;2022-10-17T04:37:03;6.13;;;4.27;;
13753;SDS011;6948;51.216;6.778;2022-10-17T04:39:29;6.37;;;4.70;;
13753;SDS011;6948;51.216;6.778;2022-10-17T04:41:55;7.13;;;4.47;;
13753;SDS011;6948;51.216;6.778;2022-10-17T04:44:21;7.20;;;4.70;;
13753;SDS011;6948;51.216;6.778;2022-10-17T04:46:48;9.07;;;4.90;;
13753;SDS011;6948;51.216;6.778;2022-10-17T04:49:14;7.07;;;4.50;;
13753;SDS011;6948;51.216;6.778;2022-10-17T04:51:40;7.73;;;4.20;;
13753;SDS011;6948;51.216;6.778;2022-10-17T04:54:06;7.17;;;4.60;;
13753;SDS011;6948;51.216;6.778;2022-10-17T04:56:32;8.13;;;5.00;;
13753;SDS011;6948;51.216;6.778;2022-10-17T04:58:58;6.63;;;4.73;;
13753;SDS011;6948;51.216;6.778;2022-10-17T05:01:24;6.37;;;4.60;;
13753;SDS011;6948;51.216;6.778;2022-10-17T05:03:51;9.17;;;4.70;;
13753;SDS011;6948;51.216;6.778;2022-10-17T05:06:18;7.53;;;5.03;;
13753;SDS011;6948;51.216;6.778;2022-10-17T05:08:45;5.90;;;4.83;;
13753;SDS011;6948;51.216;6.778;2022-10-17T05:11:15;9.33;;;4.73;;
13753;SDS011;6948;51.216;6.778;2022-10-17T05:13:42;5.77;;;4.80;;
13753;SDS011;6948;51.216;6.778;2022-10-17T05:16:08;8.70;;;4.80;;
13753;SDS011;6948;51.216;6.778;2022-10-17T05:18:34;9.07;;;4.60;;
13753;SDS011;6948;51.216;6.778;2022-10-17T05:21:02;7.23;;;4.70;;
13753;SDS011;6948;51.216;6.778;2022-10-17T05:23:28;7.40;;;4.73;;
13753;SDS011;6948;51.216;6.778;2022-10-17T05:25:55;8.00;;;4.77;;
13753;SDS011;6948;51.216;6.778;2022-10-17T05:28:21;7.60;;;4.87;;
13753;SDS011;6948;51.216;6.778;2022-10-17T05:30:47;13.40;;;4.80;;
13753;SDS011;6948;51.216;6.778;2022-10-17T05:33:13;7.43;;;4.93;;
13753;SDS011;6948;51.216;6.778;2022-10-17T05:35:40;7.93;;;5.27;;
13753;SDS011;6948;51.216;6.778;2022-10-17T05:38:06;8.63;;;5.63;;
13753;SDS011;6948;51.216;6.778;2022-10-17T05:40:32;5.93;;;4.90;;
13753;SDS011;6948;51.216;6.778;2022-10-17T05:42:58;8.40;;;5.23;;
13753;SDS011;6948;51.216;6.778;2022-10-17T05:45:24;11.70;;;6.57;;
13753;SDS011;6948;51.216;6.778;2022-10-17T05:47:50;8.40;;;5.47;;
13753;SDS011;6948;51.216;6.778;2022-10-17T05:50:16;11.03;;;5.13;;
13753;SDS011;6948;51.216;6.778;2022-10-17T05:52:45;9.80;;;5.50;;
13753;SDS011;6948;51.216;6.778;2022-10-17T05:55:11;7.57;;;4.90;;
13753;SDS011;6948;51.216;6.778;2022-10-17T05:57:37;10.80;;;5.40;;
13753;SDS011;6948;51.216;6.778;2022-10-17T06:00:04;8.33;;;4.80;;
13753;SDS011;6948;51.216;6.778;2022-10-17T06:02:30;8.03;;;4.97;;
13753;SDS011;6948;51.216;6.778;2022-10-17T06:04:56;10.27;;;6.57;;
13753;SDS011;6948;51.216;6.778;2022-10-17T06:07:22;11.10;;;5.50;;
13753;SDS011;6948;51.216;6.778;2022-10-17T06:09:48;8.00;;;5.20;;
13753;SDS011;6948;51.216;6.778;2022-10-17T06:12:14;9.87;;;5.63;;
13753;SDS011;6948;51.216;6.778;2022-10-17T06:14:40;5.73;;;5.13;;
13753;SDS011;6948;51.216;6.778;2022-10-17T06:17:06;7.87;;;5.10;;
13753;SDS011;6948;51.216;6.778;2022-10-17T06:19:32;6.70;;;4.83;;
13753;SDS011;6948;51.216;6.778;2022-10-17T06:21:59;8.90;;;5.20;;
13753;SDS011;6948;51.216;6.778;2022-10-17T06:24:25;5.93;;;4.90;;
13753;SDS011;6948;51.216;6.778;2022-10-17T06:26:51;6.70;;;4.93;;
13753;SDS011;6948;51.216;6.778;2022-10-17T06:29:17;7.80;;;5.07;;
13753;SDS011;6948;51.216;6.778;2022-10-17T06:31:43;7.60;;;4.77;;
13753;SDS011;6948;51.216;6.778;2022-10-17T06:34:09;10.80;;;4.80;;
13753;SDS011;6948;51.216;6.778;2022-10-17T06:36:35;5.37;;;4.80;;
13753;SDS011;6948;51.216;6.778;2022-10-17T06:39:01;10.57;;;5.27;;
13753;SDS011;6948;51.216;6.778;2022-10-17T06:41:27;7.03;;;4.87;;
13753;SDS011;6948;51.216;6.778;2022-10-17T06:43:53;7.60;;;4.43;;
13753;SDS011;6948;51.216;6.778;2022-10-17T06:46:19;9.23;;;4.90;;
13753;SDS011;6948;51.216;6.778;2022-10-17T06:48:46;8.60;;;4.50;;
13753;SDS011;6948;51.216;6.778;2022-10-17T06:51:12;7.77;;;4.60;;
13753;SDS011;6948;51.216;6.778;2022-10-17T06:53:38;7.10;;;4.53;;
13753;SDS011;6948;51.216;6.778;2022-10-17T06:56:05;9.57;;;4.80;;
13753;SDS011;6948;51.216;6.778;2022-10-17T06:58:33;6.40;;;4.47;;
13753;SDS011;6948;51.216;6.778;2022-10-17T07:01:00;7.47;;;5.07;;
13753;SDS011;6948;51.216;6.778;2022-10-17T07:03:27;8.20;;;4.50;;
13753;SDS011;6948;51.216;6.778;2022-10-17T07:05:54;9.33;;;4.80;;
13753;SDS011;6948;51.216;6.778;2022-10-17T07:08:20;5.57;;;4.40;;
13753;SDS011;6948;51.216;6.778;2022-10-17T07:10:46;8.40;;;4.90;;
13753;SDS011;6948;51.216;6.778;2022-10-17T07:13:13;8.73;;;4.53;;
13753;SDS011;6948;51.216;6.778;2022-10-17T07:15:39;7.43;;;4.70;;
13753;SDS011;6948;51.216;6.778;2022-10-17T07:18:06;9.60;;;4.87;;
13753;SDS011;6948;51.216;6.778;2022-10-17T07:20:32;7.20;;;4.40;;
13753;SDS011;6948;51.216;6.778;2022-10-17T07:22:58;7.37;;;4.70;;
13753;SDS011;6948;51.216;6.778;2022-10-17T07:25:24;6.67;;;4.27;;
13753;SDS011;6948;51.216;6.778;2022-10-17T07:27:51;6.67;;;4.23;;
13753;SDS011;6948;51.216;6.778;2022-10-17T07:30:18;10.63;;;5.10;;
13753;SDS011;6948;51.216;6.778;2022-10-17T07:32:44;7.53;;;4.07;;
13753;SDS011;6948;51.216;6.778;2022-10-17T07:35:10;7.67;;;4.47;;
13753;SDS011;6948;51.216;6.778;2022-10-17T07:37:36;6.23;;;4.10;;
13753;SDS011;6948;51.216;6.778;2022-10-17T07:40:03;8.27;;;4.33;;
13753;SDS011;6948;51.216;6.778;2022-10-17T07:42:30;8.83;;;4.43;;
13753;SDS011;6948;51.216;6.778;2022-10-17T07:44:56;7.60;;;4.33;;
13753;SDS011;6948;51.216;6.778;2022-10-17T07:47:22;5.53;;;3.87;;
13753;SDS011;6948;51.216;6.778;2022-10-17T07:49:49;8.13;;;4.17;;
13753;SDS011;6948;51.216;6.778;2022-10-17T07:52:15;7.80;;;4.23;;
13753;SDS011;6948;51.216;6.778;2022-10-17T07:54:42;8.80;;;3.90;;
13753;SDS011;6948;51.216;6.778;2022-10-17T07:57:08;5.33;;;4.00;;
13753;SDS011;6948;51.216;6.778;2022-10-17T07:59:35;6.70;;;3.93;;
13753;SDS011;6948;51.216;6.778;2022-10-17T08:02:01;8.07;;;3.80;;
13753;SDS011;6948;51.216;6.778;2022-10-17T08:04:27;7.30;;;3.77;;
13753;SDS011;6948;51.216;6.778;2022-10-17T08:06:53;7.37;;;4.77;;
13753;SDS011;6948;51.216;6.778;2022-10-17T08:09:19;8.10;;;3.70;;
13753;SDS011;6948;51.216;6.778;2022-10-17T08:11:46;6.97;;;4.10;;
13753;SDS011;6948;51.216;6.778;2022-10-17T08:14:13;7.57;;;3.93;;
13753;SDS011;6948;51.216;6.778;2022-10-17T08:16:40;8.60;;;3.90;;
13753;SDS011;6948;51.216;6.778;2022-10-17T08:19:07;7.33;;;3.87;;
13753;SDS011;6948;51.216;6.778;2022-10-17T08:21:35;7.60;;;3.80;;
13753;SDS011;6948;51.216;6.778;2022-10-17T08:24:01;6.10;;;3.87;;
13753;SDS011;6948;51.216;6.778;2022-10-17T08:26:27;7.93;;;4.20;;
13753;SDS011;6948;51.216;6.778;2022-10-17T08:28:54;6.67;;;3.77;;
13753;SDS011;6948;51.216;6.778;2022-10-17T08:31:21;7.67;;;3.57;;
13753;SDS011;6948;51.216;6.778;2022-10-17T08:33:48;8.77;;;3.60;;
13753;SDS011;6948;51.216;6.778;2022-10-17T08:36:16;5.70;;;3.97;;
13753;SDS011;6948;51.216;6.778;2022-10-17T08:38:42;6.00;;;3.50;;
13753;SDS011;6948;51.216;6.778;2022-10-17T08:41:13;6.40;;;3.73;;
13753;SDS011;6948;51.216;6.778;2022-10-17T08:43:43;7.53;;;3.80;;
13753;SDS011;6948;51.216;6.778;2022-10-17T08:46:12;6.53;;;3.40;;
13753;SDS011;6948;51.216;6.778;2022-10-17T08:48:40;9.23;;;3.70;;
13753;SDS011;6948;51.216;6.778;2022-10-17T08:53:48;9.10;;;3.63;;
13753;SDS011;6948;51.216;6.778;2022-10-17T08:56:25;9.17;;;3.57;;
13753;SDS011;6948;51.216;6.778;2022-10-17T08:58:51;7.93;;;3.80;;
13753;SDS011;6948;51.216;6.778;2022-10-17T09:06:32;8.73;;;3.80;;
13753;SDS011;6948;51.216;6.778;2022-10-17T09:09:04;9.03;;;3.90;;
13753;SDS011;6948;51.216;6.778;2022-10-17T09:11:36;9.23;;;4.10;;
13753;SDS011;6948;51.216;6.778;2022-10-17T09:16:49;5.60;;;3.73;;
13753;SDS011;6948;51.216;6.778;2022-10-17T09:19:18;6.33;;;3.70;;
13753;SDS011;6948;51.216;6.778;2022-10-17T09:21:48;7.80;;;3.67;;
13753;SDS011;6948;51.216;6.778;2022-10-17T09:24:17;7.90;;;4.00;;
13753;SDS011;6948;51.216;6.778;2022-10-17T09:26:44;7.30;;;3.70;;
13753;SDS011;6948;51.216;6.778;2022-10-17T09:29:16;6.87;;;3.87;;
13753;SDS011;6948;51.216;6.778;2022-10-17T09:31:46;7.13;;;4.80;;
13753;SDS011;6948;51.216;6.778;2022-10-17T09:34:14;6.77;;;4.20;;
13753;SDS011;6948;51.216;6.778;2022-10-17T09:36:41;8.33;;;3.90;;
13753;SDS011;6948;51.216;6.778;2022-10-17T09:41:47;7.17;;;4.00;;
13753;SDS011;6948;51.216;6.778;2022-10-17T09:47:09;6.13;;;3.30;;
13753;SDS011;6948;51.216;6.778;2022-10-17T09:49:36;8.97;;;3.60;;
13753;SDS011;6948;51.216;6.778;2022-10-17T09:52:04;7.67;;;3.90;;
13753;SDS011;6948;51.216;6.778;2022-10-17T09:54:35;5.07;;;3.93;;
13753;SDS011;6948;51.216;6.778;2022-10-17T09:57:05;8.63;;;4.30;;
13753;SDS011;6948;51.216;6.778;2022-10-17T09:59:35;8.40;;;4.10;;
13753;SDS011;6948;51.216;6.778;2022-10-17T10:02:08;8.57;;;3.90;;
13753;SDS011;6948;51.216;6.778;2022-10-17T10:04:34;9.40;;;3.87;;
13753;SDS011;6948;51.216;6.778;2022-10-17T10:07:02;8.10;;;4.00;;
13753;SDS011;6948;51.216;6.778;2022-10-17T10:09:29;8.30;;;3.60;;
13753;SDS011;6948;51.216;6.778;2022-10-17T10:11:57;8.13;;;3.57;;
13753;SDS011;6948;51.216;6.778;2022-10-17T10:14:27;8.07;;;3.93;;
13753;SDS011;6948;51.216;6.778;2022-10-17T10:16:57;9.67;;;3.67;;
13753;SDS011;6948;51.216;6.778;2022-10-17T10:22:00;8.07;;;3.80;;
13753;SDS011;6948;51.216;6.778;2022-10-17T10:24:27;5.60;;;3.50;;
13753;SDS011;6948;51.216;6.778;2022-10-17T10:26:54;6.23;;;3.77;;
13753;SDS011;6948;51.216;6.778;2022-10-17T10:29:22;5.73;;;3.90;;
13753;SDS011;6948;51.216;6.778;2022-10-17T10:31:50;6.83;;;4.30;;
13753;SDS011;6948;51.216;6.778;2022-10-17T10:34:26;8.93;;;4.10;;
13753;SDS011;6948;51.216;6.778;2022-10-17T10:39:36;13.00;;;5.23;;
13753;SDS011;6948;51.216;6.778;2022-10-17T10:42:04;10.37;;;4.97;;
13753;SDS011;6948;51.216;6.778;2022-10-17T10:44:31;9.33;;;4.67;;
13753;SDS011;6948;51.216;6.778;2022-10-17T10:47:16;11.20;;;4.07;;
13753;SDS011;6948;51.216;6.778;2022-10-17T10:49:43;10.70;;;4.30;;
13753;SDS011;6948;51.216;6.778;2022-10-17T10:52:12;6.37;;;3.87;;
13753;SDS011;6948;51.216;6.778;2022-10-17T10:54:42;9.23;;;4.00;;
13753;SDS011;6948;51.216;6.778;2022-10-17T10:57:16;7.47;;;3.90;;
13753;SDS011;6948;51.216;6.778;2022-10-17T10:59:52;10.93;;;4.30;;
13753;SDS011;6948;51.216;6.778;2022-10-17T11:02:25;7.10;;;3.67;;
13753;SDS011;6948;51.216;6.778;2022-10-17T11:07:41;7.53;;;4.17;;
13753;SDS011;6948;51.216;6.778;2022-10-17T11:12:48;8.73;;;4.00;;
13753;SDS011;6948;51.216;6.778;2022-10-17T11:17:58;8.90;;;4.27;;
13753;SDS011;6948;51.216;6.778;2022-10-17T11:23:20;8.23;;;4.13;;
13753;SDS011;6948;51.216;6.778;2022-10-17T11:25:49;7.20;;;4.20;;
13753;SDS011;6948;51.216;6.778;2022-10-17T11:28:16;7.53;;;4.30;;
13753;SDS011;6948;51.216;6.778;2022-10-17T11:30:44;9.23;;;4.37;;
13753;SDS011;6948;51.216;6.778;2022-10-17T11:33:13;7.97;;;4.30;;
13753;SDS011;6948;51.216;6.778;2022-10-17T11:35:41;9.67;;;5.10;;
13753;SDS011;6948;51.216;6.778;2022-10-17T11:40:52;7.33;;;4.40;;
13753;SDS011;6948;51.216;6.778;2022-10-17T11:43:21;7.80;;;4.43;;
13753;SDS011;6948;51.216;6.778;2022-10-17T11:45:51;7.03;;;4.40;;
13753;SDS011;6948;51.216;6.778;2022-10-17T11:48:22;7.13;;;4.33;;
13753;SDS011;6948;51.216;6.778;2022-10-17T11:50:51;6.60;;;4.40;;
13753;SDS011;6948;51.216;6.778;2022-10-17T11:53:21;11.20;;;4.10;;
13753;SDS011;6948;51.216;6.778;2022-10-17T11:55:47;7.90;;;4.27;;
13753;SDS011;6948;51.216;6.778;2022-10-17T12:00:56;8.83;;;4.10;;
13753;SDS011;6948;51.216;6.778;2022-10-17T12:06:16;6.97;;;4.20;;
13753;SDS011;6948;51.216;6.778;2022-10-17T12:11:28;7.80;;;4.70;;
13753;SDS011;6948;51.216;6.778;2022-10-17T12:13:59;6.30;;;4.60;;
13753;SDS011;6948;51.216;6.778;2022-10-17T12:21:54;9.47;;;4.63;;
13753;SDS011;6948;51.216;6.778;2022-10-17T12:29:57;6.83;;;4.30;;
13753;SDS011;6948;51.216;6.778;2022-10-17T12:32:23;8.20;;;4.50;;
13753;SDS011;6948;51.216;6.778;2022-10-17T12:34:51;5.90;;;3.90;;
13753;SDS011;6948;51.216;6.778;2022-10-17T12:37:40;11.50;;;4.50;;
13753;SDS011;6948;51.216;6.778;2022-10-17T12:40:21;8.73;;;4.20;;
13753;SDS011;6948;51.216;6.778;2022-10-17T12:42:49;9.57;;;4.70;;
13753;SDS011;6948;51.216;6.778;2022-10-17T12:48:01;9.17;;;4.63;;
13753;SDS011;6948;51.216;6.778;2022-10-17T12:50:58;11.00;;;4.30;;
13753;SDS011;6948;51.216;6.778;2022-10-17T12:53:13;7.13;;;4.60;;
13753;SDS011;6948;51.216;6.778;2022-10-17T12:55:41;11.10;;;4.70;;
13753;SDS011;6948;51.216;6.778;2022-10-17T12:58:11;8.60;;;4.40;;
13753;SDS011;6948;51.216;6.778;2022-10-17T13:03:20;7.47;;;4.93;;
13753;SDS011;6948;51.216;6.778;2022-10-17T13:05:49;7.53;;;4.60;;
13753;SDS011;6948;51.216;6.778;2022-10-17T13:08:22;10.57;;;5.00;;
13753;SDS011;6948;51.216;6.778;2022-10-17T13:10:51;8.30;;;4.40;;
13753;SDS011;6948;51.216;6.778;2022-10-17T13:13:21;8.10;;;4.50;;
13753;SDS011;6948;51.216;6.778;2022-10-17T13:15:48;8.53;;;4.83;;
13753;SDS011;6948;51.216;6.778;2022-10-17T13:18:21;8.40;;;4.70;;
13753;SDS011;6948;51.216;6.778;2022-10-17T13:21:05;8.20;;;4.50;;
13753;SDS011;6948;51.216;6.778;2022-10-17T13:23:36;6.97;;;4.20;;
13753;SDS011;6948;51.216;6.778;2022-10-17T13:28:38;9.00;;;5.37;;
13753;SDS011;6948;51.216;6.778;2022-10-17T13:31:04;8.20;;;4.50;;
13753;SDS011;6948;51.216;6.778;2022-10-17T13:33:33;6.33;;;3.80;;
13753;SDS011;6948;51.216;6.778;2022-10-17T13:35:59;10.17;;;4.03;;
13753;SDS011;6948;51.216;6.778;2022-10-17T13:38:27;6.60;;;3.80;;
13753;SDS011;6948;51.216;6.778;2022-10-17T13:40:56;7.13;;;4.20;;
13753;SDS011;6948;51.216;6.778;2022-10-17T13:43:22;7.87;;;3.80;;
13753;SDS011;6948;51.216;6.778;2022-10-17T13:45:49;8.87;;;4.17;;
13753;SDS011;6948;51.216;6.778;2022-10-17T13:48:17;10.73;;;4.13;;
13753;SDS011;6948;51.216;6.778;2022-10-17T13:50:45;12.13;;;5.00;;
13753;SDS011;6948;51.216;6.778;2022-10-17T13:53:24;8.03;;;4.50;;
13753;SDS011;6948;51.216;6.778;2022-10-17T13:58:29;12.33;;;4.50;;
13753;SDS011;6948;51.216;6.778;2022-10-17T14:00:55;9.73;;;4.07;;
13753;SDS011;6948;51.216;6.778;2022-10-17T14:03:22;9.33;;;4.33;;
13753;SDS011;6948;51.216;6.778;2022-10-17T14:06:05;7.93;;;3.90;;
13753;SDS011;6948;51.216;6.778;2022-10-17T14:08:34;9.53;;;5.20;;
13753;SDS011;6948;51.216;6.778;2022-10-17T14:11:01;7.47;;;3.60;;
13753;SDS011;6948;51.216;6.778;2022-10-17T14:13:28;8.10;;;3.70;;
13753;SDS011;6948;51.216;6.778;2022-10-17T14:15:58;8.73;;;3.87;;
13753;SDS011;6948;51.216;6.778;2022-10-17T14:18:27;8.83;;;3.73;;
13753;SDS011;6948;51.216;6.778;2022-10-17T14:20:54;7.70;;;3.50;;
13753;SDS011;6948;51.216;6.778;2022-10-17T14:28:44;9.97;;;3.00;;
13753;SDS011;6948;51.216;6.778;2022-10-17T14:31:16;7.97;;;3.10;;
13753;SDS011;6948;51.216;6.778;2022-10-17T14:33:44;8.47;;;3.37;;
13753;SDS011;6948;51.216;6.778;2022-10-17T14:36:11;6.00;;;3.20;;
13753;SDS011;6948;51.216;6.778;2022-10-17T14:38:37;6.87;;;2.70;;
13753;SDS011;6948;51.216;6.778;2022-10-17T14:41:05;7.90;;;3.47;;
13753;SDS011;6948;51.216;6.778;2022-10-17T14:43:34;9.03;;;3.37;;
13753;SDS011;6948;51.216;6.778;2022-10-17T14:46:00;7.70;;;3.40;;
13753;SDS011;6948;51.216;6.778;2022-10-17T14:48:27;8.57;;;3.10;;
13753;SDS011;6948;51.216;6.778;2022-10-17T14:51:12;10.13;;;3.40;;
13753;SDS011;6948;51.216;6.778;2022-10-17T14:53:40;5.87;;;3.03;;
13753;SDS011;6948;51.216;6.778;2022-10-17T14:56:24;7.73;;;3.30;;
13753;SDS011;6948;51.216;6.778;2022-10-17T14:58:50;8.10;;;3.17;;
13753;SDS011;6948;51.216;6.778;2022-10-17T15:01:17;5.80;;;2.77;;
13753;SDS011;6948;51.216;6.778;2022-10-17T15:03:43;7.57;;;2.83;;
13753;SDS011;6948;51.216;6.778;2022-10-17T15:08:55;8.07;;;3.20;;
13753;SDS011;6948;51.216;6.778;2022-10-17T15:11:21;8.53;;;3.50;;
13753;SDS011;6948;51.216;6.778;2022-10-17T15:13:48;8.33;;;3.80;;
13753;SDS011;6948;51.216;6.778;2022-10-17T15:16:14;9.83;;;3.80;;
13753;SDS011;6948;51.216;6.778;2022-10-17T15:18:41;7.60;;;3.73;;
13753;SDS011;6948;51.216;6.778;2022-10-17T15:21:10;9.43;;;3.83;;
13753;SDS011;6948;51.216;6.778;2022-10-17T15:23:36;8.20;;;3.77;;
13753;SDS011;6948;51.216;6.778;2022-10-17T15:26:02;8.93;;;3.57;;
13753;SDS011;6948;51.216;6.778;2022-10-17T15:28:28;10.10;;;4.07;;
13753;SDS011;6948;51.216;6.778;2022-10-17T15:30:54;9.43;;;4.13;;
13753;SDS011;6948;51.216;6.778;2022-10-17T15:33:20;9.53;;;4.07;;
13753;SDS011;6948;51.216;6.778;2022-10-17T15:35:46;7.10;;;3.73;;
13753;SDS011;6948;51.216;6.778;2022-10-17T15:38:14;10.70;;;4.53;;
13753;SDS011;6948;51.216;6.778;2022-10-17T15:40:42;7.63;;;4.37;;
13753;SDS011;6948;51.216;6.778;2022-10-17T15:43:09;9.77;;;4.40;;
13753;SDS011;6948;51.216;6.778;2022-10-17T15:45:35;9.10;;;4.10;;
13753;SDS011;6948;51.216;6.778;2022-10-17T15:48:03;9.70;;;3.93;;
13753;SDS011;6948;51.216;6.778;2022-10-17T15:50:30;7.53;;;4.10;;
13753;SDS011;6948;51.216;6.778;2022-10-17T15:52:56;10.10;;;3.93;;
13753;SDS011;6948;51.216;6.778;2022-10-17T15:55:23;6.70;;;3.73;;
13753;SDS011;6948;51.216;6.778;2022-10-17T15:57:49;7.67;;;4.10;;
13753;SDS011;6948;51.216;6.778;2022-10-17T16:00:18;9.00;;;4.00;;
13753;SDS011;6948;51.216;6.778;2022-10-17T16:02:45;6.87;;;3.90;;
13753;SDS011;6948;51.216;6.778;2022-10-17T16:05:13;7.73;;;4.03;;
13753;SDS011;6948;51.216;6.778;2022-10-17T16:07:40;7.23;;;4.20;;
13753;SDS011;6948;51.216;6.778;2022-10-17T16:10:06;7.90;;;4.07;;
13753;SDS011;6948;51.216;6.778;2022-10-17T16:12:34;8.73;;;4.30;;
13753;SDS011;6948;51.216;6.778;2022-10-17T16:15:05;11.80;;;4.33;;
13753;SDS011;6948;51.216;6.778;2022-10-17T16:17:31;6.90;;;4.33;;
13753;SDS011;6948;51.216;6.778;2022-10-17T16:19:57;8.10;;;4.47;;
13753;SDS011;6948;51.216;6.778;2022-10-17T16:22:25;10.83;;;5.00;;
13753;SDS011;6948;51.216;6.778;2022-10-17T16:24:53;6.80;;;4.87;;
13753;SDS011;6948;51.216;6.778;2022-10-17T16:27:23;8.57;;;5.07;;
13753;SDS011;6948;51.216;6.778;2022-10-17T16:29:49;8.00;;;4.97;;
13753;SDS011;6948;51.216;6.778;2022-10-17T16:32:15;10.37;;;5.70;;
13753;SDS011;6948;51.216;6.778;2022-10-17T16:34:40;6.40;;;5.17;;
13753;SDS011;6948;51.216;6.778;2022-10-17T16:37:07;9.03;;;5.50;;
13753;SDS011;6948;51.216;6.778;2022-10-17T16:39:32;8.47;;;5.20;;